createdAt,value
2018-07-12T00:01:30.440Z,99.90
2018-07-12T00:04:05.460Z,99.90
2018-07-12T00:06:33.854Z,99.90
2018-07-12T00:09:02.008Z,99.90
2018-07-12T00:11:30.363Z,99.90
2018-07-12T00:13:58.485Z,99.90
2018-07-12T00:16:26.850Z,99.90
2018-07-12T00:18:55.425Z,99.90
2018-07-12T00:21:23.861Z,99.90
2018-07-12T00:23:52.052Z,99.90
2018-07-12T00:26:20.062Z,99.90
2018-07-12T00:28:48.376Z,99.90
2018-07-12T00:31:16.876Z,99.90
2018-07-12T00:33:45.217Z,99.90
2018-07-12T00:36:13.633Z,99.90
2018-07-12T00:38:41.967Z,99.90
2018-07-12T00:41:10.611Z,99.90
2018-07-12T00:43:39.009Z,99.90
2018-07-12T00:46:07.520Z,99.90
2018-07-12T00:48:35.989Z,99.90
2018-07-12T00:51:04.303Z,99.90
2018-07-12T00:53:33.012Z,99.90
2018-07-12T00:56:01.303Z,99.90
2018-07-12T00:58:29.626Z,99.90
2018-07-12T01:00:57.736Z,99.90
2018-07-12T01:03:26.188Z,99.90
2018-07-12T01:05:54.659Z,99.90
2018-07-12T01:08:23.110Z,99.90
2018-07-12T01:10:51.304Z,99.90
2018-07-12T01:13:19.805Z,99.90
2018-07-12T01:15:48.207Z,99.90
2018-07-12T01:18:16.711Z,99.90
2018-07-12T01:20:45.204Z,99.90
2018-07-12T01:23:13.473Z,99.90
2018-07-12T01:25:41.755Z,99.90
2018-07-12T01:28:09.823Z,99.90
2018-07-12T01:30:38.187Z,99.90
2018-07-12T01:33:08.419Z,99.90
2018-07-12T01:38:05.831Z,99.90
2018-07-12T01:40:34.231Z,99.90
2018-07-12T01:43:02.450Z,99.90
2018-07-12T01:45:30.836Z,99.90
2018-07-12T01:47:59.279Z,99.90
2018-07-12T01:50:27.540Z,99.90
2018-07-12T01:52:55.927Z,99.90
2018-07-12T01:55:24.400Z,99.90
2018-07-12T01:57:58.017Z,99.90
2018-07-12T02:00:26.404Z,99.90
2018-07-12T02:02:54.907Z,99.90
2018-07-12T02:05:24.435Z,99.90
2018-07-12T02:07:52.941Z,99.90
2018-07-12T02:10:21.430Z,99.90
2018-07-12T02:12:49.713Z,99.90
2018-07-12T02:15:18.615Z,99.90
2018-07-12T02:17:47.007Z,99.90
2018-07-12T02:20:15.439Z,99.90
2018-07-12T02:25:12.155Z,99.90
2018-07-12T02:27:40.512Z,99.90
2018-07-12T02:30:08.780Z,99.90
2018-07-12T02:32:37.161Z,99.90
2018-07-12T02:35:05.606Z,99.90
2018-07-12T02:37:34.046Z,99.90
2018-07-12T02:40:02.141Z,99.90
2018-07-12T02:42:30.236Z,99.90
2018-07-12T02:44:58.387Z,99.90
2018-07-12T02:47:26.544Z,99.90
2018-07-12T02:49:54.547Z,99.90
2018-07-12T02:52:22.655Z,99.90
2018-07-12T02:54:50.743Z,99.90
2018-07-12T02:57:18.765Z,99.90
2018-07-12T02:59:46.807Z,99.90
2018-07-12T03:02:14.840Z,99.90
2018-07-12T03:04:42.928Z,99.90
2018-07-12T03:07:11.180Z,99.90
2018-07-12T03:09:39.653Z,99.90
2018-07-12T03:12:07.816Z,99.90
2018-07-12T03:14:36.044Z,99.90
2018-07-12T03:19:32.475Z,99.90
2018-07-12T03:22:00.551Z,99.90
2018-07-12T03:24:28.694Z,99.90
2018-07-12T03:26:56.662Z,99.90
2018-07-12T03:29:24.821Z,99.90
2018-07-12T03:31:52.967Z,99.90
2018-07-12T03:34:21.078Z,99.90
2018-07-12T03:36:49.300Z,99.90
2018-07-12T03:39:17.411Z,99.90
2018-07-12T03:41:45.524Z,99.90
2018-07-12T03:44:13.611Z,99.90
2018-07-12T03:46:41.750Z,99.90
2018-07-12T03:49:09.967Z,99.90
2018-07-12T03:51:38.393Z,99.90
2018-07-12T03:54:06.561Z,99.90
2018-07-12T03:56:34.908Z,99.90
2018-07-12T04:01:31.966Z,99.90
2018-07-12T04:04:00.170Z,99.90
2018-07-12T04:06:28.611Z,99.90
2018-07-12T04:08:56.942Z,99.90
2018-07-12T04:11:25.160Z,99.90
2018-07-12T04:13:53.303Z,99.90
2018-07-12T04:16:21.872Z,99.90
2018-07-12T04:18:49.939Z,99.90
2018-07-12T04:21:17.965Z,99.90
2018-07-12T04:23:46.052Z,99.90
2018-07-12T04:26:14.316Z,99.90
2018-07-12T04:28:42.521Z,99.90
2018-07-12T04:31:21.057Z,99.90
2018-07-12T04:36:17.627Z,99.90
2018-07-12T04:38:45.644Z,99.90
2018-07-12T04:41:13.923Z,99.90
2018-07-12T04:46:10.407Z,99.90
2018-07-12T04:48:38.580Z,99.90
2018-07-12T04:51:13.226Z,99.90
2018-07-12T04:53:41.383Z,99.90
2018-07-12T04:56:09.459Z,99.90
2018-07-12T04:58:37.610Z,99.90
2018-07-12T05:01:16.586Z,99.90
2018-07-12T05:03:44.547Z,99.90
2018-07-12T05:06:12.676Z,99.90
2018-07-12T05:08:46.227Z,99.90
2018-07-12T05:11:14.328Z,99.90
2018-07-12T05:13:42.287Z,99.90
2018-07-12T05:16:10.424Z,99.90
2018-07-12T05:18:38.570Z,99.90
2018-07-12T05:21:06.704Z,99.90
2018-07-12T05:23:34.867Z,99.90
2018-07-12T05:26:10.352Z,99.90
2018-07-12T05:28:38.915Z,99.90
2018-07-12T05:31:07.371Z,99.90
2018-07-12T05:33:35.877Z,99.90
2018-07-12T05:37:10.827Z,99.90
2018-07-12T05:39:41.463Z,99.90
2018-07-12T05:42:12.395Z,99.90
2018-07-12T05:44:43.364Z,99.90
2018-07-12T05:47:14.407Z,97.00
2018-07-12T05:52:46.598Z,94.20
2018-07-12T05:55:17.459Z,94.00
2018-07-12T05:57:55.473Z,92.60
2018-07-12T06:00:26.468Z,93.50
2018-07-12T06:02:57.177Z,94.90
2018-07-12T06:05:28.159Z,93.30
2018-07-12T06:07:58.975Z,91.90
2018-07-12T06:10:30.029Z,90.20
2018-07-12T06:13:00.803Z,85.40
2018-07-12T06:15:31.804Z,83.00
2018-07-12T06:18:02.728Z,81.70
2018-07-12T06:20:33.548Z,78.60
2018-07-12T06:23:18.562Z,73.20
2018-07-12T06:25:49.570Z,66.50
2018-07-12T06:28:20.582Z,65.60
2018-07-12T06:30:51.601Z,61.80
2018-07-12T06:33:22.588Z,57.20
2018-07-12T06:35:53.617Z,54.90
2018-07-12T06:38:24.668Z,52.30
2018-07-12T06:40:55.610Z,50.50
2018-07-12T06:43:26.652Z,50.30
2018-07-12T06:45:57.649Z,48.80
2018-07-12T06:48:28.701Z,47.90
2018-07-12T06:50:59.736Z,47.00
2018-07-12T07:02:39.036Z,45.70
2018-07-12T07:05:10.033Z,45.50
2018-07-12T07:07:41.063Z,45.90
2018-07-12T07:10:12.476Z,45.70
2018-07-12T07:12:43.434Z,44.30
2018-07-12T07:15:14.538Z,45.30
2018-07-12T07:17:51.804Z,45.00
2018-07-12T07:20:22.923Z,43.60
2018-07-12T07:22:53.617Z,42.10
2018-07-12T07:25:24.543Z,42.30
2018-07-12T07:27:55.887Z,45.60
2018-07-12T07:30:26.550Z,45.60
2018-07-12T07:32:57.131Z,44.30
2018-07-12T07:35:28.475Z,44.50
2018-07-12T07:37:59.182Z,47.80
2018-07-12T07:40:30.119Z,47.90
2018-07-12T07:43:00.995Z,48.30
2018-07-12T07:45:31.959Z,50.50
2018-07-12T07:48:03.010Z,46.90
2018-07-12T07:50:33.948Z,43.60
2018-07-12T07:53:05.003Z,42.50
2018-07-12T07:55:35.990Z,41.50
2018-07-12T07:58:07.059Z,40.40
2018-07-12T08:03:07.799Z,40.00
2018-07-12T08:05:39.019Z,40.80
2018-07-12T08:08:09.781Z,40.00
2018-07-12T08:10:41.118Z,41.60
2018-07-12T08:13:11.830Z,40.40
2018-07-12T08:15:42.778Z,39.90
2018-07-12T08:18:13.810Z,39.90
2018-07-12T08:20:44.778Z,43.70
2018-07-12T08:23:15.816Z,44.40
2018-07-12T08:25:46.854Z,42.60
2018-07-12T08:28:29.283Z,44.30
2018-07-12T08:31:00.387Z,45.40
2018-07-12T08:33:31.258Z,45.60
2018-07-12T08:36:02.224Z,45.80
2018-07-12T08:38:32.912Z,47.70
2018-07-12T08:41:04.254Z,48.20
2018-07-12T08:43:34.867Z,48.00
2018-07-12T08:46:05.986Z,47.20
2018-07-12T08:48:36.952Z,45.60
2018-07-12T08:51:07.831Z,46.80
2018-07-12T08:53:38.572Z,44.30
2018-07-12T08:56:09.604Z,41.40
2018-07-12T08:58:40.575Z,39.10
2018-07-12T09:01:11.617Z,38.50
2018-07-12T09:03:42.971Z,37.70
2018-07-12T09:06:13.914Z,39.80
2018-07-12T09:08:44.894Z,39.20
2018-07-12T09:11:15.678Z,40.10
2018-07-12T09:13:48.090Z,41.00
2018-07-12T09:16:19.130Z,40.40
2018-07-12T09:18:50.444Z,38.10
2018-07-12T09:21:21.452Z,36.90
2018-07-12T09:23:52.203Z,39.50
2018-07-12T09:26:23.467Z,42.50
2018-07-12T09:28:54.432Z,43.70
2018-07-12T09:31:25.483Z,47.20
2018-07-12T09:33:59.154Z,45.30
2018-07-12T09:36:30.223Z,46.50
2018-07-12T09:39:01.131Z,46.10
2018-07-12T09:41:32.135Z,43.70
2018-07-12T09:44:03.643Z,42.00
2018-07-12T09:46:34.844Z,42.60
2018-07-12T09:49:06.113Z,41.40
2018-07-12T09:51:37.056Z,40.70
2018-07-12T09:54:07.727Z,43.10
2018-07-12T09:56:54.706Z,43.20
2018-07-12T09:59:25.854Z,42.70
2018-07-12T10:02:02.139Z,40.30
2018-07-12T10:04:34.185Z,37.00
2018-07-12T10:09:46.135Z,35.70
2018-07-12T10:12:22.184Z,38.70
2018-07-12T10:14:56.995Z,41.40
2018-07-12T10:17:33.176Z,41.60
2018-07-12T10:20:05.350Z,39.60
2018-07-12T10:22:36.028Z,38.80
2018-07-12T10:25:07.422Z,38.00
2018-07-12T10:27:38.053Z,37.20
2018-07-12T10:30:08.988Z,37.10
2018-07-12T10:32:40.024Z,37.90
2018-07-12T10:35:11.272Z,35.40
2018-07-12T10:37:41.989Z,32.10
2018-07-12T10:40:12.827Z,31.80
2018-07-12T10:42:43.534Z,30.20
2018-07-12T10:45:14.478Z,31.00
2018-07-12T10:47:45.011Z,30.30
2018-07-12T10:50:35.908Z,30.20
2018-07-12T10:53:06.877Z,30.90
2018-07-12T10:55:37.871Z,29.10
2018-07-12T10:58:08.926Z,30.60
2018-07-12T11:00:39.376Z,30.70
2018-07-12T11:03:38.249Z,30.00
2018-07-12T11:06:08.998Z,29.80
2018-07-12T11:08:39.503Z,29.90
2018-07-12T11:11:09.999Z,29.50
2018-07-12T11:13:50.871Z,29.20
2018-07-12T11:16:21.240Z,30.20
2018-07-12T11:18:51.804Z,30.00
2018-07-12T11:21:22.472Z,29.30
2018-07-12T11:23:52.966Z,31.20
2018-07-12T11:26:23.516Z,34.40
2018-07-12T11:28:53.999Z,31.80
2018-07-12T11:31:24.408Z,31.60
2018-07-12T11:33:55.084Z,29.60
2018-07-12T11:36:25.702Z,29.00
2018-07-12T11:39:02.285Z,29.50
2018-07-12T11:41:33.098Z,29.50
2018-07-12T11:44:09.408Z,28.90
2018-07-12T11:46:45.841Z,28.40
2018-07-12T11:49:16.841Z,29.90
2018-07-12T11:51:49.789Z,29.30
2018-07-12T11:54:20.713Z,29.40
2018-07-12T11:56:51.490Z,29.70
2018-07-12T11:59:22.456Z,31.80
2018-07-12T12:01:56.849Z,30.10
2018-07-12T12:04:28.514Z,30.10
2018-07-12T12:07:00.979Z,28.80
2018-07-12T12:09:32.248Z,29.70
2018-07-12T12:12:03.220Z,29.70
2018-07-12T12:14:33.943Z,28.60
2018-07-12T12:17:04.487Z,28.40
2018-07-12T12:19:35.922Z,27.70
2018-07-12T12:22:12.378Z,28.00
2018-07-12T12:24:45.313Z,27.10
2018-07-12T12:27:15.938Z,28.10
2018-07-12T12:29:46.592Z,27.70
2018-07-12T12:32:17.443Z,28.20
2018-07-12T12:34:48.518Z,28.80
2018-07-12T12:37:19.375Z,28.90
2018-07-12T12:39:50.393Z,29.10
2018-07-12T12:42:21.486Z,27.80
2018-07-12T12:44:52.362Z,27.60
2018-07-12T12:47:23.420Z,26.80
2018-07-12T12:49:54.501Z,26.60
2018-07-12T12:52:25.469Z,26.60
2018-07-12T12:54:56.095Z,27.50
2018-07-12T12:57:27.145Z,27.20
2018-07-12T13:03:03.822Z,26.50
2018-07-12T13:05:34.672Z,27.30
2018-07-12T13:08:05.593Z,27.20
2018-07-12T13:10:36.235Z,27.40
2018-07-12T13:13:08.091Z,27.00
2018-07-12T13:15:39.036Z,26.00
2018-07-12T13:18:09.791Z,25.80
2018-07-12T13:20:40.740Z,26.00
2018-07-12T13:23:23.717Z,27.00
2018-07-12T13:25:54.644Z,26.00
2018-07-12T13:28:25.612Z,27.70
2018-07-12T13:30:56.645Z,28.60
2018-07-12T13:33:27.650Z,28.10
2018-07-12T13:38:58.897Z,25.80
2018-07-12T13:41:29.896Z,26.30
2018-07-12T13:44:16.907Z,27.70
2018-07-12T13:46:48.957Z,27.30
2018-07-12T13:49:19.892Z,26.50
2018-07-12T13:51:53.801Z,27.60
2018-07-12T13:54:24.745Z,26.30
2018-07-12T13:56:55.761Z,27.00
2018-07-12T13:59:26.777Z,28.40
2018-07-12T14:01:57.794Z,26.80
2018-07-12T14:04:28.521Z,25.80
2018-07-12T14:07:00.013Z,25.00
2018-07-12T14:09:30.842Z,25.90
2018-07-12T14:12:01.571Z,24.70
2018-07-12T14:14:32.467Z,23.30
2018-07-12T14:17:03.099Z,23.70
2018-07-12T14:19:34.051Z,24.20
2018-07-12T14:25:23.571Z,24.50
2018-07-12T14:27:54.606Z,24.00
2018-07-12T14:30:25.595Z,24.40
2018-07-12T14:32:56.933Z,25.00
2018-07-12T14:35:27.564Z,24.20
2018-07-12T14:38:02.131Z,23.50
2018-07-12T14:40:32.647Z,23.50
2018-07-12T14:43:03.975Z,24.20
2018-07-12T14:48:04.657Z,25.60
2018-07-12T14:50:35.303Z,25.60
2018-07-12T14:53:06.491Z,27.00
2018-07-12T14:55:37.660Z,27.00
2018-07-12T14:58:09.036Z,27.20
2018-07-12T15:00:39.728Z,27.00
2018-07-12T15:03:10.631Z,26.30
2018-07-12T15:05:41.387Z,26.70
2018-07-12T15:08:12.332Z,26.70
2018-07-12T15:10:43.246Z,26.60
2018-07-12T15:13:14.146Z,27.40
2018-07-12T15:15:45.095Z,28.10
2018-07-12T15:18:16.168Z,28.90
2018-07-12T15:20:46.837Z,30.00
2018-07-12T15:23:30.290Z,30.30
2018-07-12T15:26:01.303Z,29.30
2018-07-12T15:28:31.931Z,29.20
2018-07-12T15:31:02.872Z,29.20
2018-07-12T15:33:34.239Z,29.50
2018-07-12T15:36:05.391Z,29.40
2018-07-12T15:38:36.182Z,29.10
2018-07-12T15:41:06.596Z,29.40
2018-07-12T15:43:37.013Z,28.60
2018-07-12T15:46:07.546Z,29.30
2018-07-12T15:48:37.948Z,29.40
2018-07-12T15:51:11.343Z,29.40
2018-07-12T15:53:41.837Z,29.10
2018-07-12T15:56:12.384Z,28.80
2018-07-12T15:58:42.864Z,28.20
2018-07-12T16:01:13.363Z,27.30
2018-07-12T16:03:43.876Z,26.40
2018-07-12T16:06:14.241Z,26.50
2018-07-12T16:08:44.645Z,26.60
2018-07-12T16:11:15.107Z,26.10
2018-07-12T16:13:45.606Z,26.60
2018-07-12T16:16:16.457Z,26.80
2018-07-12T16:18:46.919Z,26.20
2018-07-12T16:21:17.692Z,25.80
2018-07-12T16:26:18.488Z,25.10
2018-07-12T16:28:48.824Z,25.80
2018-07-12T16:31:19.235Z,26.60
2018-07-12T16:33:49.760Z,27.00
2018-07-12T16:36:20.278Z,28.10
2018-07-12T16:38:50.716Z,28.80
2018-07-12T16:41:21.255Z,30.20
2018-07-12T16:43:51.620Z,31.00
2018-07-12T16:46:22.412Z,30.70
2018-07-12T16:48:52.848Z,31.30
2018-07-12T16:51:23.478Z,34.60
2018-07-12T16:53:54.210Z,37.00
2018-07-12T16:56:25.622Z,37.70
2018-07-12T16:58:56.732Z,39.40
2018-07-12T17:01:28.911Z,39.70
2018-07-12T17:03:59.851Z,38.60
2018-07-12T17:06:31.328Z,39.50
2018-07-12T17:09:01.924Z,40.50
2018-07-12T17:11:33.693Z,40.40
2018-07-12T17:14:04.417Z,41.20
2018-07-12T17:16:35.343Z,42.00
2018-07-12T17:19:06.741Z,43.30
2018-07-12T17:21:37.733Z,43.70
2018-07-12T17:24:10.719Z,43.60
2018-07-12T17:26:41.756Z,44.20
2018-07-12T17:29:12.493Z,43.10
2018-07-12T17:31:43.781Z,41.70
2018-07-12T17:34:18.422Z,42.00
2018-07-12T17:36:49.485Z,41.40
2018-07-12T17:39:21.346Z,42.50
2018-07-12T17:41:52.020Z,43.00
2018-07-12T17:44:22.839Z,45.00
2018-07-12T17:46:53.384Z,46.00
2018-07-12T17:49:23.882Z,45.60
2018-07-12T17:51:54.553Z,47.20
2018-07-12T17:54:24.917Z,47.10
2018-07-12T17:56:55.523Z,48.20
2018-07-12T17:59:27.272Z,48.90
2018-07-12T18:01:58.310Z,49.90
2018-07-12T18:04:28.649Z,50.20
2018-07-12T18:06:59.135Z,50.90
2018-07-12T18:09:29.773Z,51.00
2018-07-12T18:12:00.399Z,51.60
2018-07-12T18:14:30.854Z,51.70
2018-07-12T18:17:01.355Z,52.30
2018-07-12T18:19:31.795Z,53.00
2018-07-12T18:22:02.371Z,52.70
2018-07-12T18:24:33.778Z,53.20
2018-07-12T18:29:40.816Z,53.90
2018-07-12T18:32:11.770Z,54.40
2018-07-12T18:34:44.189Z,54.70
2018-07-12T18:37:14.870Z,55.20
2018-07-12T18:39:45.489Z,55.80
2018-07-12T18:42:16.451Z,55.80
2018-07-12T18:44:46.807Z,55.80
2018-07-12T18:47:17.445Z,56.10
2018-07-12T18:49:49.554Z,56.50
2018-07-12T18:52:20.042Z,56.20
2018-07-12T18:54:54.147Z,56.90
2018-07-12T18:57:24.844Z,56.60
2018-07-12T18:59:55.526Z,57.10
2018-07-12T19:02:26.539Z,57.80
2018-07-12T19:04:59.765Z,57.50
2018-07-12T19:07:30.491Z,58.30
2018-07-12T19:10:01.000Z,58.60
2018-07-12T19:12:31.900Z,59.20
2018-07-12T19:15:07.225Z,60.20
2018-07-12T19:17:38.823Z,60.60
2018-07-12T19:20:09.285Z,61.60
2018-07-12T19:22:40.182Z,62.50
2018-07-12T19:25:10.923Z,63.30
2018-07-12T19:27:41.519Z,64.20
2018-07-12T19:30:19.705Z,64.90
2018-07-12T19:32:50.449Z,65.60
2018-07-12T19:35:21.046Z,65.80
2018-07-12T19:37:51.833Z,66.40
2018-07-12T19:40:22.511Z,67.00
2018-07-12T19:42:53.619Z,67.50
2018-07-12T19:45:24.299Z,68.60
2018-07-12T19:47:55.067Z,69.20
2018-07-12T19:50:25.559Z,69.50
2018-07-12T19:52:57.242Z,70.00
2018-07-12T19:58:09.015Z,72.20
2018-07-12T20:00:43.776Z,74.00
2018-07-12T20:03:14.598Z,75.10
2018-07-12T20:05:48.365Z,76.80
2018-07-12T20:08:19.805Z,77.80
2018-07-12T20:10:50.711Z,79.30
2018-07-12T20:13:22.262Z,80.90
2018-07-12T20:15:53.044Z,82.50
2018-07-12T20:18:24.200Z,84.60
2018-07-12T20:20:54.696Z,86.10
2018-07-12T20:23:27.199Z,88.50
2018-07-12T20:25:57.680Z,90.40
2018-07-12T20:28:28.209Z,90.70
2018-07-12T20:30:59.102Z,91.90
2018-07-12T20:33:29.663Z,92.30
2018-07-12T20:36:00.187Z,93.20
2018-07-12T20:38:30.841Z,94.00
2018-07-12T20:41:01.302Z,94.50
2018-07-12T20:43:31.995Z,95.60
2018-07-12T20:46:02.335Z,96.40
2018-07-12T20:48:32.966Z,96.80
2018-07-12T20:51:03.507Z,97.20
2018-07-12T20:53:34.239Z,97.00
2018-07-12T20:56:05.728Z,96.90
2018-07-12T20:58:36.370Z,97.10
2018-07-12T21:01:06.907Z,96.90
2018-07-12T21:03:37.748Z,97.50
2018-07-12T21:06:08.355Z,99.10
2018-07-12T21:08:39.020Z,99.90
2018-07-12T21:11:09.428Z,99.90
2018-07-12T21:13:39.751Z,99.90
2018-07-12T21:18:43.196Z,99.90
2018-07-12T21:21:13.916Z,99.90
2018-07-12T21:23:44.530Z,99.90
2018-07-12T21:26:15.055Z,99.90
2018-07-12T21:28:45.613Z,99.90
2018-07-12T21:31:16.115Z,99.90
2018-07-12T21:33:46.744Z,99.90
2018-07-12T21:36:17.032Z,99.90
2018-07-12T21:38:49.388Z,99.90
2018-07-12T21:41:21.351Z,99.90
2018-07-12T21:43:51.955Z,99.90
2018-07-12T21:46:22.435Z,99.90
2018-07-12T21:48:52.814Z,99.90
2018-07-12T21:51:23.418Z,99.90
2018-07-12T21:53:53.991Z,99.90
2018-07-12T21:56:24.790Z,99.90
2018-07-12T21:58:55.248Z,99.90
2018-07-12T22:01:25.620Z,99.90
2018-07-12T22:03:56.274Z,99.90
2018-07-12T22:08:36.145Z,99.90
2018-07-12T22:11:07.286Z,99.90
2018-07-12T22:13:38.428Z,99.90
2018-07-12T22:16:09.025Z,99.90
2018-07-12T22:18:40.763Z,99.90
2018-07-12T22:21:11.739Z,99.90
2018-07-12T22:23:42.049Z,99.90
2018-07-12T22:26:12.431Z,99.90
2018-07-12T22:28:42.958Z,99.90
2018-07-12T22:31:13.643Z,99.90
2018-07-12T22:33:44.004Z,99.90
2018-07-12T22:36:14.377Z,99.90
2018-07-12T22:38:44.876Z,99.90
2018-07-12T22:41:15.452Z,99.90
2018-07-12T22:43:45.867Z,99.90
2018-07-12T22:46:16.484Z,99.90
2018-07-12T22:48:46.888Z,99.90
2018-07-12T22:51:17.396Z,99.90
2018-07-12T22:53:47.860Z,99.90
2018-07-12T22:56:18.379Z,99.90
2018-07-12T22:58:48.815Z,99.90
2018-07-12T23:01:19.346Z,99.90
2018-07-12T23:03:49.986Z,99.90
2018-07-12T23:06:20.488Z,99.90
2018-07-12T23:08:51.375Z,99.90
2018-07-12T23:11:22.139Z,99.90
2018-07-12T23:13:52.581Z,99.90
2018-07-12T23:16:23.031Z,99.90
2018-07-12T23:18:53.762Z,99.90
2018-07-12T23:21:32.226Z,99.90
2018-07-12T23:24:03.661Z,99.90
2018-07-12T23:26:35.087Z,99.90
2018-07-12T23:29:05.713Z,99.90
2018-07-12T23:31:36.183Z,99.90
2018-07-12T23:34:06.551Z,99.90
2018-07-12T23:36:36.882Z,99.90
2018-07-12T23:39:09.654Z,99.90
2018-07-12T23:41:40.177Z,99.90
2018-07-12T23:44:10.765Z,99.90
2018-07-12T23:46:41.188Z,99.90
2018-07-12T23:49:15.314Z,99.90
2018-07-12T23:51:45.897Z,99.90
2018-07-12T23:54:16.470Z,99.90
2018-07-12T23:56:46.756Z,99.90
2018-07-12T23:59:17.489Z,99.90
